sensor_id;sensor_type;location;lat;lon;timestamp;P1;durP1;ratioP1;P2;durP2;ratioP2
8407;SDS011;4241;48.452;9.216;2022-12-08T00:00:46;378.47;;;104.93;;
8407;SDS011;4241;48.452;9.216;2022-12-08T00:03:13;344.57;;;99.50;;
8407;SDS011;4241;48.452;9.216;2022-12-08T00:05:44;355.63;;;101.43;;
8407;SDS011;4241;48.452;9.216;2022-12-08T00:08:29;339.83;;;97.67;;
8407;SDS011;4241;48.452;9.216;2022-12-08T00:11:13;353.03;;;103.00;;
8407;SDS011;4241;48.452;9.216;2022-12-08T00:13:40;336.10;;;97.77;;
8407;SDS011;4241;48.452;9.216;2022-12-08T00:16:07;336.50;;;98.03;;
8407;SDS011;4241;48.452;9.216;2022-12-08T00:18:34;347.57;;;99.10;;
8407;SDS011;4241;48.452;9.216;2022-12-08T00:21:03;352.07;;;99.80;;
8407;SDS011;4241;48.452;9.216;2022-12-08T00:23:30;361.43;;;102.80;;
8407;SDS011;4241;48.452;9.216;2022-12-08T00:26:00;356.50;;;101.23;;
8407;SDS011;4241;48.452;9.216;2022-12-08T00:28:28;332.03;;;97.20;;
8407;SDS011;4241;48.452;9.216;2022-12-08T00:30:55;332.37;;;96.53;;
8407;SDS011;4241;48.452;9.216;2022-12-08T00:33:21;342.47;;;99.03;;
8407;SDS011;4241;48.452;9.216;2022-12-08T00:35:48;351.57;;;100.50;;
8407;SDS011;4241;48.452;9.216;2022-12-08T00:38:16;355.23;;;100.20;;
8407;SDS011;4241;48.452;9.216;2022-12-08T00:40:43;356.30;;;101.63;;
8407;SDS011;4241;48.452;9.216;2022-12-08T00:43:10;355.47;;;101.67;;
8407;SDS011;4241;48.452;9.216;2022-12-08T00:45:37;356.87;;;101.40;;
8407;SDS011;4241;48.452;9.216;2022-12-08T00:48:04;352.87;;;99.53;;
8407;SDS011;4241;48.452;9.216;2022-12-08T00:50:31;350.57;;;100.50;;
8407;SDS011;4241;48.452;9.216;2022-12-08T00:52:58;353.07;;;100.10;;
8407;SDS011;4241;48.452;9.216;2022-12-08T00:55:26;350.77;;;99.93;;
8407;SDS011;4241;48.452;9.216;2022-12-08T00:57:52;345.87;;;99.37;;
8407;SDS011;4241;48.452;9.216;2022-12-08T01:00:19;349.97;;;99.37;;
8407;SDS011;4241;48.452;9.216;2022-12-08T01:02:46;355.77;;;101.23;;
8407;SDS011;4241;48.452;9.216;2022-12-08T01:05:13;350.70;;;99.87;;
8407;SDS011;4241;48.452;9.216;2022-12-08T01:07:40;349.80;;;99.53;;
8407;SDS011;4241;48.452;9.216;2022-12-08T01:10:07;347.63;;;99.00;;
8407;SDS011;4241;48.452;9.216;2022-12-08T01:12:35;336.83;;;98.07;;
8407;SDS011;4241;48.452;9.216;2022-12-08T01:15:02;300.70;;;90.90;;
8407;SDS011;4241;48.452;9.216;2022-12-08T01:17:30;327.03;;;94.23;;
8407;SDS011;4241;48.452;9.216;2022-12-08T01:19:56;342.93;;;98.63;;
8407;SDS011;4241;48.452;9.216;2022-12-08T01:22:23;349.17;;;101.43;;
8407;SDS011;4241;48.452;9.216;2022-12-08T01:24:50;350.67;;;103.90;;
8407;SDS011;4241;48.452;9.216;2022-12-08T01:27:17;339.43;;;97.33;;
8407;SDS011;4241;48.452;9.216;2022-12-08T01:29:45;343.17;;;98.27;;
8407;SDS011;4241;48.452;9.216;2022-12-08T01:32:12;337.53;;;96.00;;
8407;SDS011;4241;48.452;9.216;2022-12-08T01:34:39;341.53;;;99.10;;
8407;SDS011;4241;48.452;9.216;2022-12-08T01:37:06;342.80;;;98.80;;
8407;SDS011;4241;48.452;9.216;2022-12-08T01:39:33;341.27;;;98.57;;
8407;SDS011;4241;48.452;9.216;2022-12-08T01:42:03;336.60;;;97.73;;
8407;SDS011;4241;48.452;9.216;2022-12-08T01:47:33;312.60;;;92.43;;
8407;SDS011;4241;48.452;9.216;2022-12-08T01:50:03;312.90;;;91.87;;
8407;SDS011;4241;48.452;9.216;2022-12-08T01:52:34;318.33;;;93.60;;
8407;SDS011;4241;48.452;9.216;2022-12-08T01:55:05;321.20;;;94.20;;
8407;SDS011;4241;48.452;9.216;2022-12-08T01:57:34;321.17;;;93.50;;
8407;SDS011;4241;48.452;9.216;2022-12-08T02:00:08;325.03;;;94.63;;
8407;SDS011;4241;48.452;9.216;2022-12-08T02:02:38;324.03;;;93.80;;
8407;SDS011;4241;48.452;9.216;2022-12-08T02:05:13;320.70;;;93.43;;
8407;SDS011;4241;48.452;9.216;2022-12-08T02:07:41;322.80;;;94.30;;
8407;SDS011;4241;48.452;9.216;2022-12-08T02:10:09;324.50;;;95.20;;
8407;SDS011;4241;48.452;9.216;2022-12-08T02:12:39;318.70;;;93.67;;
8407;SDS011;4241;48.452;9.216;2022-12-08T02:15:07;309.77;;;91.13;;
8407;SDS011;4241;48.452;9.216;2022-12-08T02:17:40;328.70;;;94.33;;
8407;SDS011;4241;48.452;9.216;2022-12-08T02:20:35;313.20;;;90.87;;
8407;SDS011;4241;48.452;9.216;2022-12-08T02:23:13;317.80;;;92.93;;
8407;SDS011;4241;48.452;9.216;2022-12-08T02:25:55;315.43;;;92.17;;
8407;SDS011;4241;48.452;9.216;2022-12-08T02:28:50;314.07;;;92.50;;
8407;SDS011;4241;48.452;9.216;2022-12-08T02:31:34;315.90;;;92.70;;
8407;SDS011;4241;48.452;9.216;2022-12-08T02:34:12;312.53;;;92.13;;
8407;SDS011;4241;48.452;9.216;2022-12-08T02:36:46;308.50;;;90.73;;
8407;SDS011;4241;48.452;9.216;2022-12-08T02:39:21;309.60;;;91.17;;
8407;SDS011;4241;48.452;9.216;2022-12-08T02:41:55;309.20;;;91.87;;
8407;SDS011;4241;48.452;9.216;2022-12-08T02:44:30;304.93;;;89.67;;
8407;SDS011;4241;48.452;9.216;2022-12-08T02:47:02;307.27;;;90.70;;
8407;SDS011;4241;48.452;9.216;2022-12-08T02:49:34;303.43;;;90.03;;
8407;SDS011;4241;48.452;9.216;2022-12-08T02:52:05;306.47;;;91.47;;
8407;SDS011;4241;48.452;9.216;2022-12-08T02:54:33;309.17;;;91.07;;
8407;SDS011;4241;48.452;9.216;2022-12-08T02:57:09;303.77;;;91.03;;
8407;SDS011;4241;48.452;9.216;2022-12-08T02:59:50;284.73;;;87.10;;
8407;SDS011;4241;48.452;9.216;2022-12-08T03:02:28;274.63;;;84.47;;
8407;SDS011;4241;48.452;9.216;2022-12-08T03:05:12;278.00;;;85.20;;
8407;SDS011;4241;48.452;9.216;2022-12-08T03:07:48;284.73;;;86.33;;
8407;SDS011;4241;48.452;9.216;2022-12-08T03:10:23;279.70;;;85.73;;
8407;SDS011;4241;48.452;9.216;2022-12-08T03:12:57;238.07;;;79.13;;
8407;SDS011;4241;48.452;9.216;2022-12-08T03:15:27;237.67;;;78.03;;
8407;SDS011;4241;48.452;9.216;2022-12-08T03:17:56;240.67;;;78.33;;
8407;SDS011;4241;48.452;9.216;2022-12-08T03:20:27;239.57;;;78.67;;
8407;SDS011;4241;48.452;9.216;2022-12-08T03:22:57;237.97;;;78.43;;
8407;SDS011;4241;48.452;9.216;2022-12-08T03:25:29;240.15;;;79.15;;
8407;SDS011;4241;48.452;9.216;2022-12-08T03:28:00;238.00;;;77.50;;
8407;SDS011;4241;48.452;9.216;2022-12-08T03:32:57;237.47;;;77.43;;
8407;SDS011;4241;48.452;9.216;2022-12-08T03:35:29;240.63;;;78.63;;
8407;SDS011;4241;48.452;9.216;2022-12-08T03:38:00;243.40;;;79.60;;
8407;SDS011;4241;48.452;9.216;2022-12-08T03:40:28;245.30;;;80.13;;
8407;SDS011;4241;48.452;9.216;2022-12-08T03:42:55;249.83;;;80.47;;
8407;SDS011;4241;48.452;9.216;2022-12-08T03:45:22;250.33;;;80.30;;
8407;SDS011;4241;48.452;9.216;2022-12-08T03:47:49;253.40;;;80.53;;
8407;SDS011;4241;48.452;9.216;2022-12-08T03:50:15;198.20;;;72.53;;
8407;SDS011;4241;48.452;9.216;2022-12-08T03:52:44;272.53;;;84.10;;
8407;SDS011;4241;48.452;9.216;2022-12-08T03:55:11;278.00;;;85.23;;
8407;SDS011;4241;48.452;9.216;2022-12-08T03:57:38;287.97;;;87.57;;
8407;SDS011;4241;48.452;9.216;2022-12-08T04:00:05;283.67;;;85.73;;
8407;SDS011;4241;48.452;9.216;2022-12-08T04:02:34;293.57;;;88.80;;
8407;SDS011;4241;48.452;9.216;2022-12-08T04:05:00;294.77;;;89.17;;
8407;SDS011;4241;48.452;9.216;2022-12-08T04:07:28;288.40;;;87.80;;
8407;SDS011;4241;48.452;9.216;2022-12-08T04:09:56;287.23;;;85.87;;
8407;SDS011;4241;48.452;9.216;2022-12-08T04:12:23;287.00;;;87.10;;
8407;SDS011;4241;48.452;9.216;2022-12-08T04:14:50;286.67;;;91.13;;
8407;SDS011;4241;48.452;9.216;2022-12-08T04:17:16;283.03;;;85.63;;
8407;SDS011;4241;48.452;9.216;2022-12-08T04:19:43;280.57;;;85.40;;
8407;SDS011;4241;48.452;9.216;2022-12-08T04:22:10;272.40;;;83.20;;
8407;SDS011;4241;48.452;9.216;2022-12-08T04:24:37;266.83;;;85.37;;
8407;SDS011;4241;48.452;9.216;2022-12-08T04:27:05;260.03;;;81.90;;
8407;SDS011;4241;48.452;9.216;2022-12-08T04:29:32;266.37;;;83.80;;
8407;SDS011;4241;48.452;9.216;2022-12-08T04:31:59;264.33;;;82.87;;
8407;SDS011;4241;48.452;9.216;2022-12-08T04:34:25;253.97;;;80.90;;
8407;SDS011;4241;48.452;9.216;2022-12-08T04:36:52;243.10;;;79.83;;
8407;SDS011;4241;48.452;9.216;2022-12-08T04:39:19;245.93;;;78.63;;
8407;SDS011;4241;48.452;9.216;2022-12-08T04:41:46;251.27;;;79.73;;
8407;SDS011;4241;48.452;9.216;2022-12-08T04:44:14;273.60;;;84.20;;
8407;SDS011;4241;48.452;9.216;2022-12-08T04:46:41;285.40;;;88.97;;
8407;SDS011;4241;48.452;9.216;2022-12-08T04:49:07;278.87;;;85.57;;
8407;SDS011;4241;48.452;9.216;2022-12-08T04:51:34;278.30;;;84.53;;
8407;SDS011;4241;48.452;9.216;2022-12-08T04:54:01;265.50;;;82.97;;
8407;SDS011;4241;48.452;9.216;2022-12-08T04:56:31;267.27;;;83.50;;
8407;SDS011;4241;48.452;9.216;2022-12-08T04:58:58;265.47;;;81.93;;
8407;SDS011;4241;48.452;9.216;2022-12-08T05:01:26;271.80;;;85.07;;
8407;SDS011;4241;48.452;9.216;2022-12-08T05:03:52;268.37;;;83.20;;
8407;SDS011;4241;48.452;9.216;2022-12-08T05:06:19;272.67;;;84.63;;
8407;SDS011;4241;48.452;9.216;2022-12-08T05:08:46;268.03;;;82.83;;
8407;SDS011;4241;48.452;9.216;2022-12-08T05:11:13;272.10;;;83.97;;
8407;SDS011;4241;48.452;9.216;2022-12-08T05:13:40;267.70;;;83.63;;
8407;SDS011;4241;48.452;9.216;2022-12-08T05:16:07;268.30;;;83.27;;
8407;SDS011;4241;48.452;9.216;2022-12-08T05:18:37;266.43;;;83.43;;
8407;SDS011;4241;48.452;9.216;2022-12-08T05:21:05;261.97;;;82.07;;
8407;SDS011;4241;48.452;9.216;2022-12-08T05:23:32;263.27;;;82.37;;
8407;SDS011;4241;48.452;9.216;2022-12-08T05:25:59;262.77;;;81.60;;
8407;SDS011;4241;48.452;9.216;2022-12-08T05:28:27;253.47;;;80.50;;
8407;SDS011;4241;48.452;9.216;2022-12-08T05:30:53;261.23;;;81.80;;
8407;SDS011;4241;48.452;9.216;2022-12-08T05:33:20;264.90;;;82.50;;
8407;SDS011;4241;48.452;9.216;2022-12-08T05:35:48;262.70;;;81.27;;
8407;SDS011;4241;48.452;9.216;2022-12-08T05:38:15;264.10;;;84.13;;
8407;SDS011;4241;48.452;9.216;2022-12-08T05:40:42;264.40;;;83.20;;
8407;SDS011;4241;48.452;9.216;2022-12-08T05:43:09;261.17;;;81.93;;
8407;SDS011;4241;48.452;9.216;2022-12-08T05:45:36;258.97;;;81.23;;
8407;SDS011;4241;48.452;9.216;2022-12-08T05:48:03;259.97;;;81.87;;
8407;SDS011;4241;48.452;9.216;2022-12-08T05:50:30;257.70;;;81.10;;
8407;SDS011;4241;48.452;9.216;2022-12-08T05:52:58;253.53;;;80.77;;
8407;SDS011;4241;48.452;9.216;2022-12-08T05:55:25;256.03;;;81.87;;
8407;SDS011;4241;48.452;9.216;2022-12-08T05:57:52;256.23;;;81.57;;
8407;SDS011;4241;48.452;9.216;2022-12-08T06:00:20;254.37;;;80.90;;
8407;SDS011;4241;48.452;9.216;2022-12-08T06:02:47;241.43;;;78.13;;
8407;SDS011;4241;48.452;9.216;2022-12-08T06:05:13;250.43;;;82.03;;
8407;SDS011;4241;48.452;9.216;2022-12-08T06:07:40;245.50;;;80.33;;
8407;SDS011;4241;48.452;9.216;2022-12-08T06:10:09;243.53;;;79.23;;
8407;SDS011;4241;48.452;9.216;2022-12-08T06:12:36;246.67;;;81.13;;
8407;SDS011;4241;48.452;9.216;2022-12-08T06:15:04;243.53;;;80.10;;
8407;SDS011;4241;48.452;9.216;2022-12-08T06:17:32;236.93;;;77.23;;
8407;SDS011;4241;48.452;9.216;2022-12-08T06:19:58;238.97;;;78.07;;
8407;SDS011;4241;48.452;9.216;2022-12-08T06:22:25;249.43;;;82.10;;
8407;SDS011;4241;48.452;9.216;2022-12-08T06:24:53;246.03;;;82.27;;
8407;SDS011;4241;48.452;9.216;2022-12-08T06:27:21;238.63;;;78.93;;
8407;SDS011;4241;48.452;9.216;2022-12-08T06:29:48;240.07;;;78.50;;
8407;SDS011;4241;48.452;9.216;2022-12-08T06:32:14;239.23;;;78.13;;
8407;SDS011;4241;48.452;9.216;2022-12-08T06:34:41;242.77;;;80.13;;
8407;SDS011;4241;48.452;9.216;2022-12-08T06:37:08;240.50;;;78.50;;
8407;SDS011;4241;48.452;9.216;2022-12-08T06:39:35;245.67;;;80.77;;
8407;SDS011;4241;48.452;9.216;2022-12-08T06:42:02;223.33;;;74.87;;
8407;SDS011;4241;48.452;9.216;2022-12-08T06:44:44;219.30;;;77.90;;
8407;SDS011;4241;48.452;9.216;2022-12-08T06:47:11;231.77;;;80.43;;
8407;SDS011;4241;48.452;9.216;2022-12-08T06:49:38;222.57;;;75.83;;
8407;SDS011;4241;48.452;9.216;2022-12-08T06:52:05;221.87;;;76.10;;
8407;SDS011;4241;48.452;9.216;2022-12-08T06:54:32;218.73;;;74.00;;
8407;SDS011;4241;48.452;9.216;2022-12-08T06:56:59;223.77;;;75.20;;
8407;SDS011;4241;48.452;9.216;2022-12-08T06:59:25;220.13;;;74.40;;
8407;SDS011;4241;48.452;9.216;2022-12-08T07:01:53;225.03;;;75.87;;
8407;SDS011;4241;48.452;9.216;2022-12-08T07:04:21;218.30;;;73.97;;
8407;SDS011;4241;48.452;9.216;2022-12-08T07:06:48;211.03;;;72.63;;
8407;SDS011;4241;48.452;9.216;2022-12-08T07:09:15;212.57;;;73.03;;
8407;SDS011;4241;48.452;9.216;2022-12-08T07:11:42;218.37;;;76.17;;
8407;SDS011;4241;48.452;9.216;2022-12-08T07:14:09;201.00;;;70.97;;
8407;SDS011;4241;48.452;9.216;2022-12-08T07:16:36;198.40;;;70.93;;
8407;SDS011;4241;48.452;9.216;2022-12-08T07:19:04;199.50;;;70.87;;
8407;SDS011;4241;48.452;9.216;2022-12-08T07:21:32;193.27;;;69.60;;
8407;SDS011;4241;48.452;9.216;2022-12-08T07:23:59;194.80;;;70.53;;
8407;SDS011;4241;48.452;9.216;2022-12-08T07:26:26;197.77;;;71.40;;
8407;SDS011;4241;48.452;9.216;2022-12-08T07:28:53;190.57;;;69.83;;
8407;SDS011;4241;48.452;9.216;2022-12-08T07:31:20;185.60;;;68.43;;
8407;SDS011;4241;48.452;9.216;2022-12-08T07:33:49;188.23;;;68.83;;
8407;SDS011;4241;48.452;9.216;2022-12-08T07:36:17;192.80;;;70.10;;
8407;SDS011;4241;48.452;9.216;2022-12-08T07:38:44;185.23;;;67.43;;
8407;SDS011;4241;48.452;9.216;2022-12-08T07:41:12;188.37;;;69.43;;
8407;SDS011;4241;48.452;9.216;2022-12-08T07:43:40;196.43;;;72.93;;
8407;SDS011;4241;48.452;9.216;2022-12-08T07:46:09;182.57;;;68.00;;
8407;SDS011;4241;48.452;9.216;2022-12-08T07:48:37;187.13;;;69.77;;
8407;SDS011;4241;48.452;9.216;2022-12-08T07:51:04;190.27;;;68.77;;
8407;SDS011;4241;48.452;9.216;2022-12-08T07:53:33;193.77;;;70.53;;
8407;SDS011;4241;48.452;9.216;2022-12-08T07:56:00;191.57;;;69.93;;
8407;SDS011;4241;48.452;9.216;2022-12-08T07:58:30;187.40;;;69.50;;
8407;SDS011;4241;48.452;9.216;2022-12-08T08:00:57;187.53;;;69.43;;
8407;SDS011;4241;48.452;9.216;2022-12-08T08:03:24;182.53;;;69.33;;
8407;SDS011;4241;48.452;9.216;2022-12-08T08:05:50;182.83;;;68.80;;
8407;SDS011;4241;48.452;9.216;2022-12-08T08:08:17;192.03;;;69.80;;
8407;SDS011;4241;48.452;9.216;2022-12-08T08:10:46;195.67;;;71.43;;
8407;SDS011;4241;48.452;9.216;2022-12-08T08:13:12;191.53;;;71.00;;
8407;SDS011;4241;48.452;9.216;2022-12-08T08:15:39;195.30;;;71.10;;
8407;SDS011;4241;48.452;9.216;2022-12-08T08:18:06;194.23;;;70.27;;
8407;SDS011;4241;48.452;9.216;2022-12-08T08:20:33;193.93;;;70.30;;
8407;SDS011;4241;48.452;9.216;2022-12-08T08:23:00;190.47;;;70.33;;
8407;SDS011;4241;48.452;9.216;2022-12-08T08:25:26;194.07;;;71.50;;
8407;SDS011;4241;48.452;9.216;2022-12-08T08:27:55;191.23;;;71.30;;
8407;SDS011;4241;48.452;9.216;2022-12-08T08:30:21;195.57;;;72.53;;
8407;SDS011;4241;48.452;9.216;2022-12-08T08:32:48;191.90;;;70.70;;
8407;SDS011;4241;48.452;9.216;2022-12-08T08:35:16;190.17;;;71.13;;
8407;SDS011;4241;48.452;9.216;2022-12-08T08:37:43;192.13;;;71.30;;
8407;SDS011;4241;48.452;9.216;2022-12-08T08:40:10;190.50;;;70.87;;
8407;SDS011;4241;48.452;9.216;2022-12-08T08:42:37;198.43;;;73.60;;
8407;SDS011;4241;48.452;9.216;2022-12-08T08:45:06;196.40;;;71.93;;
8407;SDS011;4241;48.452;9.216;2022-12-08T08:47:33;191.10;;;70.83;;
8407;SDS011;4241;48.452;9.216;2022-12-08T08:50:00;187.77;;;69.67;;
8407;SDS011;4241;48.452;9.216;2022-12-08T08:52:27;194.03;;;72.53;;
8407;SDS011;4241;48.452;9.216;2022-12-08T08:54:54;207.77;;;76.97;;
8407;SDS011;4241;48.452;9.216;2022-12-08T08:57:20;205.63;;;74.40;;
8407;SDS011;4241;48.452;9.216;2022-12-08T08:59:47;212.20;;;76.70;;
8407;SDS011;4241;48.452;9.216;2022-12-08T09:02:16;214.43;;;76.50;;
8407;SDS011;4241;48.452;9.216;2022-12-08T09:04:44;215.13;;;78.70;;
8407;SDS011;4241;48.452;9.216;2022-12-08T09:07:11;214.90;;;76.73;;
8407;SDS011;4241;48.452;9.216;2022-12-08T09:09:39;205.20;;;73.43;;
8407;SDS011;4241;48.452;9.216;2022-12-08T09:12:05;215.97;;;76.90;;
8407;SDS011;4241;48.452;9.216;2022-12-08T09:14:33;217.57;;;76.33;;
8407;SDS011;4241;48.452;9.216;2022-12-08T09:17:00;213.97;;;74.93;;
8407;SDS011;4241;48.452;9.216;2022-12-08T09:19:28;221.33;;;76.90;;
8407;SDS011;4241;48.452;9.216;2022-12-08T09:21:55;221.50;;;76.27;;
8407;SDS011;4241;48.452;9.216;2022-12-08T09:24:22;227.20;;;77.40;;
8407;SDS011;4241;48.452;9.216;2022-12-08T09:26:49;230.23;;;78.07;;
8407;SDS011;4241;48.452;9.216;2022-12-08T09:29:15;229.03;;;77.50;;
8407;SDS011;4241;48.452;9.216;2022-12-08T09:31:43;228.90;;;77.70;;
8407;SDS011;4241;48.452;9.216;2022-12-08T09:34:09;234.87;;;79.53;;
8407;SDS011;4241;48.452;9.216;2022-12-08T09:36:38;234.07;;;80.23;;
8407;SDS011;4241;48.452;9.216;2022-12-08T09:39:05;225.83;;;77.37;;
8407;SDS011;4241;48.452;9.216;2022-12-08T09:41:33;237.17;;;79.53;;
8407;SDS011;4241;48.452;9.216;2022-12-08T09:44:07;242.60;;;80.23;;
8407;SDS011;4241;48.452;9.216;2022-12-08T09:46:52;223.13;;;76.20;;
8407;SDS011;4241;48.452;9.216;2022-12-08T09:49:22;238.80;;;80.20;;
8407;SDS011;4241;48.452;9.216;2022-12-08T09:51:56;234.57;;;77.80;;
8407;SDS011;4241;48.452;9.216;2022-12-08T09:54:24;228.27;;;78.67;;
8407;SDS011;4241;48.452;9.216;2022-12-08T09:56:57;225.90;;;78.83;;
8407;SDS011;4241;48.452;9.216;2022-12-08T09:59:28;218.70;;;77.20;;
8407;SDS011;4241;48.452;9.216;2022-12-08T10:01:57;384.75;;;105.05;;
8407;SDS011;4241;48.452;9.216;2022-12-08T10:04:27;391.63;;;105.27;;
8407;SDS011;4241;48.452;9.216;2022-12-08T10:06:59;393.30;;;106.90;;
8407;SDS011;4241;48.452;9.216;2022-12-08T10:09:33;395.90;;;107.33;;
8407;SDS011;4241;48.452;9.216;2022-12-08T10:12:06;395.20;;;106.90;;
8407;SDS011;4241;48.452;9.216;2022-12-08T10:14:42;401.57;;;112.67;;
8407;SDS011;4241;48.452;9.216;2022-12-08T10:17:14;398.03;;;108.57;;
8407;SDS011;4241;48.452;9.216;2022-12-08T10:19:45;398.77;;;109.03;;
8407;SDS011;4241;48.452;9.216;2022-12-08T10:22:20;398.60;;;107.93;;
8407;SDS011;4241;48.452;9.216;2022-12-08T10:24:53;405.37;;;115.57;;
8407;SDS011;4241;48.452;9.216;2022-12-08T10:27:25;397.00;;;107.57;;
8407;SDS011;4241;48.452;9.216;2022-12-08T10:29:53;397.33;;;107.83;;
8407;SDS011;4241;48.452;9.216;2022-12-08T10:32:20;397.03;;;108.67;;
8407;SDS011;4241;48.452;9.216;2022-12-08T10:34:59;392.20;;;108.83;;
8407;SDS011;4241;48.452;9.216;2022-12-08T10:37:29;386.93;;;108.07;;
8407;SDS011;4241;48.452;9.216;2022-12-08T10:39:59;379.57;;;105.53;;
8407;SDS011;4241;48.452;9.216;2022-12-08T10:42:32;379.63;;;106.73;;
8407;SDS011;4241;48.452;9.216;2022-12-08T10:45:07;376.53;;;106.87;;
8407;SDS011;4241;48.452;9.216;2022-12-08T10:47:57;381.33;;;104.37;;
8407;SDS011;4241;48.452;9.216;2022-12-08T10:50:28;372.70;;;105.17;;
8407;SDS011;4241;48.452;9.216;2022-12-08T10:52:59;378.10;;;106.60;;
8407;SDS011;4241;48.452;9.216;2022-12-08T10:55:27;365.53;;;103.63;;
8407;SDS011;4241;48.452;9.216;2022-12-08T10:58:04;362.60;;;103.47;;
8407;SDS011;4241;48.452;9.216;2022-12-08T11:00:31;373.00;;;104.93;;
8407;SDS011;4241;48.452;9.216;2022-12-08T11:02:58;387.07;;;103.83;;
8407;SDS011;4241;48.452;9.216;2022-12-08T11:05:27;385.70;;;105.03;;
8407;SDS011;4241;48.452;9.216;2022-12-08T11:07:58;383.93;;;104.03;;
8407;SDS011;4241;48.452;9.216;2022-12-08T11:10:28;387.87;;;107.70;;
8407;SDS011;4241;48.452;9.216;2022-12-08T11:12:59;386.60;;;105.77;;
8407;SDS011;4241;48.452;9.216;2022-12-08T11:15:30;385.00;;;105.70;;
8407;SDS011;4241;48.452;9.216;2022-12-08T11:18:01;386.23;;;106.57;;
8407;SDS011;4241;48.452;9.216;2022-12-08T11:20:36;385.57;;;105.57;;
8407;SDS011;4241;48.452;9.216;2022-12-08T11:23:16;385.77;;;105.40;;
8407;SDS011;4241;48.452;9.216;2022-12-08T11:25:45;383.30;;;104.47;;
8407;SDS011;4241;48.452;9.216;2022-12-08T11:28:13;388.33;;;106.60;;
8407;SDS011;4241;48.452;9.216;2022-12-08T11:30:41;387.23;;;105.87;;
8407;SDS011;4241;48.452;9.216;2022-12-08T11:33:13;387.83;;;106.13;;
8407;SDS011;4241;48.452;9.216;2022-12-08T11:35:44;388.90;;;105.80;;
8407;SDS011;4241;48.452;9.216;2022-12-08T11:38:16;388.70;;;105.30;;
8407;SDS011;4241;48.452;9.216;2022-12-08T11:40:46;388.83;;;105.97;;
8407;SDS011;4241;48.452;9.216;2022-12-08T11:43:16;388.63;;;105.07;;
8407;SDS011;4241;48.452;9.216;2022-12-08T11:45:47;390.67;;;106.13;;
8407;SDS011;4241;48.452;9.216;2022-12-08T11:48:21;390.93;;;105.50;;
8407;SDS011;4241;48.452;9.216;2022-12-08T11:50:56;403.47;;;118.07;;
8407;SDS011;4241;48.452;9.216;2022-12-08T11:53:30;390.07;;;105.40;;
8407;SDS011;4241;48.452;9.216;2022-12-08T11:56:04;392.27;;;107.17;;
8407;SDS011;4241;48.452;9.216;2022-12-08T11:58:38;390.60;;;106.00;;
8407;SDS011;4241;48.452;9.216;2022-12-08T12:01:10;391.87;;;106.23;;
8407;SDS011;4241;48.452;9.216;2022-12-08T12:03:44;392.00;;;105.63;;
8407;SDS011;4241;48.452;9.216;2022-12-08T12:06:22;394.17;;;107.93;;
8407;SDS011;4241;48.452;9.216;2022-12-08T12:09:06;390.73;;;104.73;;
8407;SDS011;4241;48.452;9.216;2022-12-08T12:11:40;392.43;;;106.50;;
8407;SDS011;4241;48.452;9.216;2022-12-08T12:14:37;393.97;;;106.87;;
8407;SDS011;4241;48.452;9.216;2022-12-08T12:17:25;396.53;;;109.43;;
8407;SDS011;4241;48.452;9.216;2022-12-08T12:20:02;393.00;;;106.80;;
8407;SDS011;4241;48.452;9.216;2022-12-08T12:22:36;393.50;;;107.20;;
8407;SDS011;4241;48.452;9.216;2022-12-08T12:25:14;391.53;;;106.30;;
8407;SDS011;4241;48.452;9.216;2022-12-08T12:27:43;393.90;;;107.30;;
8407;SDS011;4241;48.452;9.216;2022-12-08T12:30:18;390.43;;;106.13;;
8407;SDS011;4241;48.452;9.216;2022-12-08T12:32:47;389.07;;;106.60;;
8407;SDS011;4241;48.452;9.216;2022-12-08T12:35:20;387.27;;;106.27;;
8407;SDS011;4241;48.452;9.216;2022-12-08T12:37:53;385.93;;;106.20;;
8407;SDS011;4241;48.452;9.216;2022-12-08T12:40:24;383.33;;;106.73;;
8407;SDS011;4241;48.452;9.216;2022-12-08T12:45:38;380.17;;;105.67;;
8407;SDS011;4241;48.452;9.216;2022-12-08T12:48:21;374.90;;;106.97;;
8407;SDS011;4241;48.452;9.216;2022-12-08T12:50:50;379.50;;;108.57;;
8407;SDS011;4241;48.452;9.216;2022-12-08T13:02:18;375.83;;;105.80;;
8407;SDS011;4241;48.452;9.216;2022-12-08T13:04:52;386.87;;;110.17;;
8407;SDS011;4241;48.452;9.216;2022-12-08T13:07:23;386.07;;;108.40;;
8407;SDS011;4241;48.452;9.216;2022-12-08T13:09:54;394.93;;;111.30;;
8407;SDS011;4241;48.452;9.216;2022-12-08T13:12:24;386.70;;;107.30;;
8407;SDS011;4241;48.452;9.216;2022-12-08T13:14:52;394.50;;;112.50;;
8407;SDS011;4241;48.452;9.216;2022-12-08T13:17:26;388.70;;;106.27;;
8407;SDS011;4241;48.452;9.216;2022-12-08T13:19:56;388.10;;;106.33;;
8407;SDS011;4241;48.452;9.216;2022-12-08T13:25:47;390.63;;;106.57;;
8407;SDS011;4241;48.452;9.216;2022-12-08T13:33:14;393.00;;;106.97;;
8407;SDS011;4241;48.452;9.216;2022-12-08T13:35:44;391.83;;;106.13;;
8407;SDS011;4241;48.452;9.216;2022-12-08T13:38:16;392.17;;;106.40;;
8407;SDS011;4241;48.452;9.216;2022-12-08T13:40:46;393.67;;;106.50;;
8407;SDS011;4241;48.452;9.216;2022-12-08T13:43:15;394.53;;;107.97;;
8407;SDS011;4241;48.452;9.216;2022-12-08T13:45:52;393.60;;;107.27;;
8407;SDS011;4241;48.452;9.216;2022-12-08T13:48:23;394.43;;;107.37;;
8407;SDS011;4241;48.452;9.216;2022-12-08T13:50:55;399.63;;;112.53;;
8407;SDS011;4241;48.452;9.216;2022-12-08T13:53:32;393.40;;;106.80;;
8407;SDS011;4241;48.452;9.216;2022-12-08T13:56:03;392.33;;;106.13;;
8407;SDS011;4241;48.452;9.216;2022-12-08T13:58:33;391.67;;;105.50;;
8407;SDS011;4241;48.452;9.216;2022-12-08T14:01:03;393.47;;;106.73;;
8407;SDS011;4241;48.452;9.216;2022-12-08T14:03:37;393.83;;;107.30;;
8407;SDS011;4241;48.452;9.216;2022-12-08T14:06:13;390.93;;;105.30;;
8407;SDS011;4241;48.452;9.216;2022-12-08T14:08:41;392.63;;;106.40;;
8407;SDS011;4241;48.452;9.216;2022-12-08T14:11:13;393.30;;;107.20;;
8407;SDS011;4241;48.452;9.216;2022-12-08T14:13:57;394.77;;;108.73;;
8407;SDS011;4241;48.452;9.216;2022-12-08T14:16:27;392.33;;;105.77;;
8407;SDS011;4241;48.452;9.216;2022-12-08T14:19:03;393.43;;;106.80;;
8407;SDS011;4241;48.452;9.216;2022-12-08T14:21:30;391.03;;;105.87;;
8407;SDS011;4241;48.452;9.216;2022-12-08T14:24:00;393.60;;;107.30;;
8407;SDS011;4241;48.452;9.216;2022-12-08T14:26:29;395.40;;;108.47;;
8407;SDS011;4241;48.452;9.216;2022-12-08T14:28:58;392.77;;;106.47;;
8407;SDS011;4241;48.452;9.216;2022-12-08T14:31:27;394.70;;;107.97;;
8407;SDS011;4241;48.452;9.216;2022-12-08T14:33:54;393.97;;;108.73;;
8407;SDS011;4241;48.452;9.216;2022-12-08T14:36:21;392.83;;;107.40;;
8407;SDS011;4241;48.452;9.216;2022-12-08T14:38:48;391.47;;;106.63;;
8407;SDS011;4241;48.452;9.216;2022-12-08T14:41:23;393.23;;;109.47;;
8407;SDS011;4241;48.452;9.216;2022-12-08T14:43:56;392.00;;;109.00;;
8407;SDS011;4241;48.452;9.216;2022-12-08T14:46:26;388.57;;;106.13;;
8407;SDS011;4241;48.452;9.216;2022-12-08T14:48:53;388.40;;;106.37;;
8407;SDS011;4241;48.452;9.216;2022-12-08T14:51:24;392.50;;;106.33;;
8407;SDS011;4241;48.452;9.216;2022-12-08T14:53:55;390.97;;;105.90;;
8407;SDS011;4241;48.452;9.216;2022-12-08T14:56:24;389.33;;;105.07;;
8407;SDS011;4241;48.452;9.216;2022-12-08T14:59:04;389.43;;;105.23;;
8407;SDS011;4241;48.452;9.216;2022-12-08T15:01:38;392.53;;;107.63;;
8407;SDS011;4241;48.452;9.216;2022-12-08T15:04:06;392.90;;;107.03;;
8407;SDS011;4241;48.452;9.216;2022-12-08T15:06:44;390.13;;;106.27;;
8407;SDS011;4241;48.452;9.216;2022-12-08T15:09:14;390.57;;;105.83;;
8407;SDS011;4241;48.452;9.216;2022-12-08T15:11:42;389.50;;;105.80;;